createdAt,value
2023-03-22T00:03:43.863Z,8.05
2023-03-22T00:08:50.734Z,7.93
2023-03-22T00:13:53.748Z,8.02
2023-03-22T00:18:55.705Z,8.40
2023-03-22T00:23:57.523Z,8.35
2023-03-22T00:28:59.393Z,7.28
2023-03-22T00:34:01.196Z,7.53
2023-03-22T00:39:03.078Z,6.97
2023-03-22T00:44:04.993Z,7.15
2023-03-22T00:49:06.655Z,7.32
2023-03-22T00:54:08.333Z,7.93
2023-03-22T00:59:10.132Z,7.57
2023-03-22T01:04:17.928Z,7.55
2023-03-22T01:09:23.897Z,7.30
2023-03-22T01:14:26.244Z,6.93
2023-03-22T01:19:28.133Z,7.35
2023-03-22T01:24:29.815Z,7.18
2023-03-22T01:29:31.658Z,6.85
2023-03-22T01:34:33.416Z,6.85
2023-03-22T01:39:36.199Z,7.18
2023-03-22T01:44:44.804Z,6.03
2023-03-22T01:49:49.141Z,6.93
2023-03-22T01:54:53.790Z,6.65
2023-03-22T02:00:15.801Z,6.25
2023-03-22T02:05:44.125Z,7.32
2023-03-22T02:10:47.166Z,8.20
2023-03-22T02:16:17.621Z,6.75
2023-03-22T02:21:42.192Z,6.30
2023-03-22T02:27:25.506Z,8.15
2023-03-22T02:32:48.319Z,6.72
2023-03-22T02:38:02.340Z,7.47
2023-03-22T02:43:38.549Z,6.45
2023-03-22T02:48:48.043Z,6.88
2023-03-22T02:53:58.990Z,6.15
2023-03-22T02:59:04.985Z,6.15
2023-03-22T03:04:12.788Z,7.28
2023-03-22T03:09:18.082Z,7.38
2023-03-22T03:14:26.038Z,5.88
2023-03-22T03:19:40.586Z,7.60
2023-03-22T03:24:56.153Z,7.15
2023-03-22T03:30:10.162Z,6.88
2023-03-22T03:35:23.250Z,7.35
2023-03-22T03:40:31.214Z,7.47
2023-03-22T03:45:36.188Z,7.25
2023-03-22T03:50:38.378Z,8.52
2023-03-22T03:55:40.894Z,7.13
2023-03-22T04:00:43.564Z,6.65
2023-03-22T04:06:06.409Z,6.60
2023-03-22T04:11:12.189Z,7.05
2023-03-22T04:16:15.421Z,8.10
2023-03-22T04:21:17.613Z,7.10
2023-03-22T04:26:26.792Z,7.32
2023-03-22T04:31:50.840Z,7.88
2023-03-22T04:36:56.631Z,6.47
2023-03-22T04:42:11.289Z,6.88
2023-03-22T04:47:13.960Z,7.30
2023-03-22T04:52:16.075Z,7.57
2023-03-22T04:57:25.048Z,6.70
2023-03-22T05:02:26.997Z,6.95
2023-03-22T05:07:29.811Z,7.32
2023-03-22T05:12:34.001Z,8.65
2023-03-22T05:17:52.661Z,7.65
2023-03-22T05:22:56.914Z,7.32
2023-03-22T05:28:01.814Z,7.85
2023-03-22T05:33:16.986Z,7.93
2023-03-22T05:38:22.821Z,8.95
2023-03-22T05:43:27.004Z,8.75
2023-03-22T05:48:29.054Z,7.78
2023-03-22T05:53:31.877Z,8.07
2023-03-22T05:58:59.464Z,8.65
2023-03-22T06:04:01.430Z,9.23
2023-03-22T06:09:17.262Z,9.65
2023-03-22T06:14:22.617Z,8.85
2023-03-22T06:19:47.560Z,9.02
2023-03-22T06:24:50.881Z,7.90
2023-03-22T06:30:01.605Z,9.10
2023-03-22T06:35:07.003Z,8.60
2023-03-22T06:40:10.017Z,8.25
2023-03-22T06:45:14.669Z,8.43
2023-03-22T06:50:18.711Z,8.38
2023-03-22T06:55:43.189Z,8.50
2023-03-22T07:00:49.090Z,9.45
2023-03-22T07:05:53.012Z,9.13
2023-03-22T07:10:54.874Z,9.35
2023-03-22T07:16:01.171Z,10.25
2023-03-22T07:21:26.052Z,9.02
2023-03-22T07:26:32.629Z,10.18
2023-03-22T07:31:36.604Z,8.90
2023-03-22T07:36:45.339Z,8.63
2023-03-22T07:41:47.820Z,8.68
2023-03-22T07:47:09.870Z,7.75
2023-03-22T07:52:19.155Z,7.95
2023-03-22T07:57:21.903Z,8.80
2023-03-22T08:02:30.257Z,8.18
2023-03-22T08:07:34.489Z,8.88
2023-03-22T08:12:36.483Z,9.30
2023-03-22T08:17:49.843Z,8.63
2023-03-22T08:23:01.025Z,8.82
2023-03-22T08:28:03.407Z,8.32
2023-03-22T08:33:06.492Z,8.48
2023-03-22T08:38:09.014Z,9.07
2023-03-22T08:43:19.791Z,10.20
2023-03-22T08:48:21.943Z,8.52
2023-03-22T08:53:50.059Z,9.45
2023-03-22T08:59:11.777Z,9.88
2023-03-22T09:04:24.708Z,10.98
2023-03-22T09:09:26.630Z,11.77
2023-03-22T09:14:29.586Z,11.35
2023-03-22T09:19:32.188Z,12.40
2023-03-22T09:24:33.925Z,12.18
2023-03-22T09:29:37.889Z,12.65
2023-03-22T09:34:44.065Z,13.05
2023-03-22T09:39:46.461Z,13.05
2023-03-22T09:44:51.632Z,13.10
2023-03-22T09:50:16.002Z,13.48
2023-03-22T09:55:21.520Z,12.93
2023-03-22T10:00:38.642Z,13.73
2023-03-22T10:05:51.340Z,12.63
2023-03-22T10:10:53.260Z,14.18
2023-03-22T10:16:02.522Z,15.75
2023-03-22T10:21:06.960Z,15.32
2023-03-22T10:26:22.789Z,15.55
2023-03-22T10:31:26.704Z,14.27
2023-03-22T10:36:34.718Z,15.30
2023-03-22T10:41:36.822Z,14.68
2023-03-22T10:46:41.062Z,15.05
2023-03-22T10:51:49.215Z,15.88
2023-03-22T10:56:50.984Z,16.58
2023-03-22T11:01:52.795Z,15.43
2023-03-22T11:06:56.172Z,15.85
2023-03-22T11:12:02.433Z,16.67
2023-03-22T11:17:07.060Z,16.48
2023-03-22T11:22:24.950Z,17.35
2023-03-22T11:27:33.053Z,16.98
2023-03-22T11:32:39.535Z,16.95
2023-03-22T11:37:49.398Z,16.65
2023-03-22T11:42:57.078Z,16.80
2023-03-22T11:48:07.038Z,17.33
2023-03-22T11:53:15.518Z,18.08
2023-03-22T11:58:44.628Z,17.30
2023-03-22T12:03:54.004Z,17.45
2023-03-22T12:09:00.781Z,17.45
2023-03-22T12:14:09.498Z,17.98
2023-03-22T12:19:28.228Z,18.05
2023-03-22T12:24:32.965Z,17.65
2023-03-22T12:29:36.441Z,17.88
2023-03-22T12:34:44.889Z,17.83
2023-03-22T12:39:55.831Z,17.73
2023-03-22T12:45:05.832Z,17.60
2023-03-22T12:50:13.089Z,17.17
2023-03-22T12:55:30.736Z,18.13
2023-03-22T13:00:43.104Z,17.17
2023-03-22T13:05:47.182Z,17.33
2023-03-22T13:10:50.521Z,17.80
2023-03-22T13:16:09.398Z,17.25
2023-03-22T13:21:26.624Z,17.45
2023-03-22T13:26:47.285Z,16.90
2023-03-22T13:31:52.152Z,17.10
2023-03-22T13:36:56.427Z,16.65
2023-03-22T13:42:38.075Z,17.13
2023-03-22T13:47:47.255Z,17.17
2023-03-22T13:53:06.582Z,17.35
2023-03-22T13:58:45.673Z,17.13
2023-03-22T14:03:50.527Z,17.25
2023-03-22T14:08:57.418Z,17.90
2023-03-22T14:14:09.969Z,17.30
2023-03-22T14:19:18.527Z,17.35
